Alexandria, LA

8:02 PM CDT on August 28, 2014 (GMT -0500)
Alexandria Esler Regional | Change Station
CLOSE
Current Station
Airport
Location: Alexandria Esle,
Elevation: 112 ft
Nearby Weather Stations

Elev 112 ft 31.39 °N, 92.30 °W | Updated 9 minutes ago

Clear
Clear
81 °F
Feels Like 87 °F
N
0
Wind Variable Wind from North

Today
High -- | Low -- °F
--% Chance of Precip.
Yesterday
High -- | Low -- °F
Precip. -- in
6:43 AM 7:38 PM
Waxing Crescent, 11% visible
Pressure 29.90 in
Visibility 10.0 miles
Clouds Clear
Heat Index 87 °F
Dew Point 75 °F
Humidity 82%
Rainfall 0.00 in
Snow Depth Not available.
UV 0 out of 12
Pollen 9.00 out of 12
Air Quality Not available.
Flu Activity Not available.
METAR KESF 290053Z AUTO 00000KT 10SM CLR 27/24 A2991 RMK AO2 SLP125 T02720239

More Conditions Fewer Conditions

Pressure 29.90 in
Visibility 10.0 miles
Clouds Clear
Heat Index 87 °F
Dew Point 75 °F
Humidity 82%
Rainfall 0.00 in
Snow Depth Not available.
UV 0 out of 12
Pollen 9.00 out of 12
Air Quality Not available.
Flu Activity Not available.
METAR KESF 290053Z AUTO 00000KT 10SM CLR 27/24 A2991 RMK AO2 SLP125 T02720239

More Conditions Fewer Conditions

10-Day Weather Forecast

Almanac

Astronomy

Aug. 28, 2014 Rise Set
Actual Time 6:43 AM CDT 7:38 PM CDT
Civil Twilight 6:18 AM CDT 8:02 PM CDT
Nautical Twilight 5:49 AM CDT 8:32 PM CDT
Astronomical Twilight 5:18 AM CDT 9:02 PM CDT
Moon 9:22 AM CDT (8/28) 9:17 PM CDT (8/28)
Length of Visible Light 13h 44m
Length of Day
12h 54m
Tomorrow will be 1m 48s shorter.
Waxing Crescent, 11% of the Moon is Illuminated
Today
Waxing Crescent
Sep 2
First Quarter
Sep 8
Full
Sep 15
Last Quarter
Sep 24
New

Today's Extremes

State Highs State Lows

Community

WunderPhotos

Upload Photos

1,748,121 photos uploaded!

Nearby

Snow Depth

Station Depth Elevation
No new snow has been reported.

Earthquake Activity

City Distance Mag. Time & Date
No recent earthquake activity has been reported nearby.
Minimum magnitude displayed is 2.5.

Coastal Water Temperatures

Place Temperature
No Stations Reporting

Nearby Weather Stations